createdAt,value
2024-05-09T00:00:38.893Z,24.9
2024-05-09T00:01:42.093Z,7.3
2024-05-09T00:02:44.935Z,11.6
2024-05-09T00:03:47.815Z,15.2
2024-05-09T00:04:51.139Z,17.9
2024-05-09T00:05:54.244Z,20.1
2024-05-09T00:06:56.877Z,22.3
2024-05-09T00:07:59.367Z,23.9
2024-05-09T00:09:02.112Z,25.2
2024-05-09T00:10:05.510Z,25.9
2024-05-09T00:11:09.759Z,7.4
2024-05-09T00:12:12.803Z,11.9
2024-05-09T00:13:15.840Z,15.3
2024-05-09T00:14:18.265Z,18.3
2024-05-09T00:15:21.057Z,20.5
2024-05-09T00:16:23.631Z,22.3
2024-05-09T00:17:26.225Z,23.8
2024-05-09T00:18:29.449Z,24.8
2024-05-09T00:19:32.641Z,25.8
2024-05-09T00:20:37.483Z,26.7
2024-05-09T00:21:40.808Z,7.5
2024-05-09T00:22:43.275Z,11.8
2024-05-09T00:23:45.962Z,15.3
2024-05-09T00:24:48.357Z,18
2024-05-09T00:25:50.831Z,20.4
2024-05-09T00:26:53.579Z,22.2
2024-05-09T00:27:56.031Z,23.7
2024-05-09T00:28:58.469Z,24.9
2024-05-09T00:30:01.216Z,26.2
2024-05-09T00:31:10.040Z,7.2
2024-05-09T00:32:12.524Z,11.6
2024-05-09T00:33:15.843Z,15.3
2024-05-09T00:34:20.013Z,17.9
2024-05-09T00:35:23.361Z,20.4
2024-05-09T00:36:26.792Z,22.3
2024-05-09T00:37:29.209Z,23.8
2024-05-09T00:38:31.754Z,25.2
2024-05-09T00:39:34.892Z,26
2024-05-09T00:40:39.420Z,26.7
2024-05-09T00:41:42.527Z,7.2
2024-05-09T00:42:44.891Z,11.6
2024-05-09T00:43:47.526Z,15.1
2024-05-09T00:44:50.224Z,18
2024-05-09T00:45:52.685Z,20.5
2024-05-09T00:46:55.174Z,22.2
2024-05-09T00:47:58.112Z,23.8
2024-05-09T00:49:02.396Z,25.1
2024-05-09T00:50:07.575Z,26.2
2024-05-09T00:51:10.589Z,7.3
2024-05-09T00:52:13.578Z,11.8
2024-05-09T00:53:16.083Z,15
2024-05-09T00:54:18.897Z,18.1
2024-05-09T00:55:21.315Z,20.4
2024-05-09T00:56:23.792Z,22.4
2024-05-09T00:57:26.764Z,23.9
2024-05-09T00:58:29.201Z,25.3
2024-05-09T00:59:31.752Z,26.4
2024-05-09T01:00:38.048Z,27.1
2024-05-09T01:01:39.868Z,7.1
2024-05-09T01:02:42.985Z,11.6
2024-05-09T01:03:48.007Z,15.2
2024-05-09T01:04:51.243Z,7.4
2024-05-09T01:05:54.442Z,11.7
2024-05-09T01:06:57.530Z,15.2
2024-05-09T01:08:00.105Z,18.1
2024-05-09T01:09:03.307Z,20.3
2024-05-09T01:10:11.463Z,22.2
2024-05-09T01:11:11.094Z,7.2
2024-05-09T01:12:14.170Z,11.4
2024-05-09T01:13:17.623Z,15
2024-05-09T01:14:20.065Z,17.7
2024-05-09T01:15:22.890Z,19.8
2024-05-09T01:16:25.004Z,21.9
2024-05-09T01:17:27.474Z,23.4
2024-05-09T01:18:31.079Z,24.4
2024-05-09T01:19:34.138Z,25.5
2024-05-09T01:20:40.446Z,26.3
2024-05-09T01:21:42.377Z,7.1
2024-05-09T01:22:44.737Z,11.5
2024-05-09T01:23:47.446Z,15.2
2024-05-09T01:24:49.651Z,18.1
2024-05-09T01:25:51.990Z,20.2
2024-05-09T01:26:54.703Z,22.1
2024-05-09T01:27:56.968Z,23.5
2024-05-09T01:28:59.392Z,24.8
2024-05-09T01:30:03.021Z,25.6
2024-05-09T01:31:07.413Z,7.5
2024-05-09T01:32:09.993Z,11.7
2024-05-09T01:33:13.683Z,15.3
2024-05-09T01:34:17.440Z,18.3
2024-05-09T01:35:20.162Z,20.7
2024-05-09T01:36:23.202Z,22.4
2024-05-09T01:37:25.628Z,24.1
2024-05-09T01:38:28.153Z,25.2
2024-05-09T01:39:31.347Z,26.4
2024-05-09T01:40:36.695Z,27.2
2024-05-09T01:41:38.786Z,7.3
2024-05-09T01:42:41.340Z,11.7
2024-05-09T01:43:43.640Z,15.4
2024-05-09T01:44:46.242Z,18.6
2024-05-09T01:45:48.664Z,20.9
2024-05-09T01:46:51.184Z,22.8
2024-05-09T01:47:54.150Z,24.3
2024-05-09T01:48:57.879Z,25.7
2024-05-09T01:50:01.117Z,26.3
2024-05-09T01:51:10.815Z,7.4
2024-05-09T01:52:14.190Z,11.7
2024-05-09T01:53:16.501Z,15.3
2024-05-09T01:54:19.303Z,18.2
2024-05-09T01:55:21.776Z,20.5
2024-05-09T01:56:24.272Z,22.1
2024-05-09T01:57:27.067Z,23.7
2024-05-09T01:58:29.513Z,25
2024-05-09T01:59:32.021Z,26.2
2024-05-09T02:00:38.372Z,27.1
2024-05-09T02:01:54.912Z,7.4
2024-05-09T02:02:45.202Z,7.2
2024-05-09T02:03:48.716Z,11.6
2024-05-09T02:04:53.020Z,14.9
2024-05-09T02:05:55.982Z,17.8
2024-05-09T02:06:58.649Z,20.2
2024-05-09T02:08:01.203Z,22.4
2024-05-09T02:09:04.213Z,23.8
2024-05-09T02:10:08.627Z,25
2024-05-09T02:11:11.924Z,7.4
2024-05-09T02:12:15.619Z,11.7
2024-05-09T02:13:19.266Z,15.4
2024-05-09T02:14:21.735Z,18.2
2024-05-09T02:15:24.555Z,20.4
2024-05-09T02:16:26.797Z,22.2
2024-05-09T02:17:29.363Z,23.7
2024-05-09T02:18:33.083Z,24.9
2024-05-09T02:19:36.250Z,26
2024-05-09T02:20:39.109Z,26.9
2024-05-09T02:21:43.819Z,27.7
2024-05-09T02:22:46.269Z,28.1
2024-05-09T02:23:48.980Z,28.5
2024-05-09T02:24:51.399Z,29
2024-05-09T02:25:53.906Z,29.6
2024-05-09T02:26:56.712Z,29.9
2024-05-09T02:27:59.258Z,29.9
2024-05-09T02:29:02.016Z,30.1
2024-05-09T02:30:06.132Z,30.2
2024-05-09T02:31:09.793Z,7.4
2024-05-09T02:32:12.441Z,11.8
2024-05-09T02:33:15.429Z,15.3
2024-05-09T02:34:18.746Z,18.3
2024-05-09T02:35:21.761Z,20.7
2024-05-09T02:36:24.673Z,22.8
2024-05-09T02:37:27.126Z,24.4
2024-05-09T02:38:29.370Z,25.7
2024-05-09T02:39:32.438Z,26.6
2024-05-09T02:40:36.589Z,27.3
2024-05-09T02:41:39.726Z,7.1
2024-05-09T02:42:42.191Z,11.4
2024-05-09T02:43:44.468Z,14.9
2024-05-09T02:44:47.142Z,17.9
2024-05-09T02:45:49.396Z,20
2024-05-09T02:46:51.848Z,22.1
2024-05-09T02:47:54.771Z,23.6
2024-05-09T02:48:59.105Z,25
2024-05-09T02:50:02.254Z,25.9
2024-05-09T02:51:13.975Z,7.1
2024-05-09T02:52:16.617Z,11.6
2024-05-09T02:53:19.107Z,15.2
2024-05-09T02:54:21.512Z,18
2024-05-09T02:55:23.943Z,20.7
2024-05-09T02:56:26.214Z,22.8
2024-05-09T02:57:29.076Z,24
2024-05-09T02:58:31.513Z,25.1
2024-05-09T02:59:34.080Z,26
2024-05-09T03:00:38.343Z,26.9
2024-05-09T03:01:41.745Z,7.1
2024-05-09T03:02:44.589Z,11.4
2024-05-09T03:03:47.860Z,15.1
2024-05-09T03:04:51.227Z,17.8
2024-05-09T03:05:54.372Z,20
2024-05-09T03:06:56.906Z,22.2
2024-05-09T03:07:59.483Z,23.7
2024-05-09T03:09:02.442Z,25
2024-05-09T03:10:09.598Z,26.2
2024-05-09T03:11:10.216Z,7.3
2024-05-09T03:12:13.321Z,11.7
2024-05-09T03:13:16.510Z,15.2
2024-05-09T03:14:19.074Z,18.1
2024-05-09T03:15:21.875Z,20.3
2024-05-09T03:16:24.326Z,22.3
2024-05-09T03:17:27.028Z,24.2
2024-05-09T03:18:30.294Z,25.5
2024-05-09T03:19:33.330Z,26.3
2024-05-09T03:20:36.799Z,27.1
2024-05-09T03:21:41.016Z,27.6
2024-05-09T03:22:43.589Z,28.1
2024-05-09T03:23:46.295Z,28.5
2024-05-09T03:24:49.092Z,28.9
2024-05-09T03:25:51.560Z,29.2
2024-05-09T03:26:54.274Z,29.4
2024-05-09T03:27:56.788Z,29.4
2024-05-09T03:28:59.350Z,29.6
2024-05-09T03:30:02.028Z,29.6
2024-05-09T03:31:07.661Z,7.2
2024-05-09T03:32:10.102Z,11.6
2024-05-09T03:33:14.098Z,15.3
2024-05-09T03:34:22.275Z,18.3
2024-05-09T03:35:25.186Z,20.8
2024-05-09T03:36:28.193Z,22.6
2024-05-09T03:37:30.647Z,24.1
2024-05-09T03:38:33.133Z,25.2
2024-05-09T03:39:36.288Z,26.3
2024-05-09T03:40:38.725Z,27.1
2024-05-09T03:41:41.053Z,27.7
2024-05-09T03:42:43.695Z,28.1
2024-05-09T03:43:46.113Z,28.4
2024-05-09T03:44:48.826Z,28.6
2024-05-09T03:45:51.250Z,29
2024-05-09T03:46:53.715Z,29.4
2024-05-09T03:47:56.550Z,29.8
2024-05-09T03:49:00.361Z,29.9
2024-05-09T03:50:05.459Z,30.1
2024-05-09T03:51:08.683Z,7.2
2024-05-09T03:52:11.589Z,11.5
2024-05-09T03:53:14.222Z,15.2
2024-05-09T03:54:17.441Z,18
2024-05-09T03:55:19.864Z,20.4
2024-05-09T03:56:22.345Z,22.3
2024-05-09T03:57:25.202Z,24
2024-05-09T03:58:27.623Z,25.2
2024-05-09T03:59:30.160Z,26.3
2024-05-09T04:00:35.749Z,27.2
2024-05-09T04:01:38.420Z,7.5
2024-05-09T04:02:41.296Z,11.7
2024-05-09T04:03:44.352Z,15.3
2024-05-09T04:04:47.803Z,18
2024-05-09T04:05:51.164Z,20.3
2024-05-09T04:06:53.801Z,22.2
2024-05-09T04:07:56.314Z,23.7
2024-05-09T04:08:59.190Z,25.1
2024-05-09T04:10:01.721Z,26.2
2024-05-09T04:11:09.798Z,7.3
2024-05-09T04:12:13.077Z,11.6
2024-05-09T04:13:16.149Z,15.5
2024-05-09T04:14:18.596Z,18.4
2024-05-09T04:15:21.420Z,20.8
2024-05-09T04:16:23.882Z,22.6
2024-05-09T04:17:26.388Z,24.1
2024-05-09T04:18:30.179Z,25.3
2024-05-09T04:19:33.414Z,26.3
2024-05-09T04:20:38.370Z,27.3
2024-05-09T04:21:41.543Z,7.5
2024-05-09T04:22:43.957Z,11.8
2024-05-09T04:23:46.825Z,15.1
2024-05-09T04:24:49.735Z,18.2
2024-05-09T04:25:52.197Z,20.3
2024-05-09T04:26:54.932Z,22.3
2024-05-09T04:27:57.421Z,23.8
2024-05-09T04:28:59.746Z,25
2024-05-09T04:30:02.493Z,26
2024-05-09T04:31:10.345Z,7.3
2024-05-09T04:32:12.858Z,11.7
2024-05-09T04:33:16.081Z,15
2024-05-09T04:34:19.790Z,17.7
2024-05-09T04:35:23.188Z,20
2024-05-09T04:36:26.491Z,21.9
2024-05-09T04:37:28.883Z,23.7
2024-05-09T04:38:31.301Z,24.7
2024-05-09T04:39:34.361Z,25.8
2024-05-09T04:40:37.483Z,26.7
2024-05-09T04:41:40.871Z,27.4
2024-05-09T04:42:43.424Z,28.1
2024-05-09T04:43:45.684Z,28.4
2024-05-09T04:44:48.307Z,28.6
2024-05-09T04:45:50.805Z,29.2
2024-05-09T04:46:53.272Z,29.5
2024-05-09T04:47:55.891Z,29.7
2024-05-09T04:49:00.259Z,29.7
2024-05-09T04:50:03.620Z,29.7
2024-05-09T04:51:11.194Z,7.5
2024-05-09T04:52:13.812Z,11.8
2024-05-09T04:53:16.201Z,15.4
2024-05-09T04:55:25.043Z,7.2
2024-05-09T04:56:27.548Z,11.6
2024-05-09T04:57:30.454Z,15.3
2024-05-09T04:58:32.683Z,18.5
2024-05-09T04:59:34.735Z,20.8
2024-05-09T05:00:38.401Z,22.4
2024-05-09T05:01:44.027Z,24
2024-05-09T05:02:47.416Z,25.2
2024-05-09T05:03:50.635Z,26.2
2024-05-09T05:04:56.692Z,27
2024-05-09T05:05:59.950Z,27.6
2024-05-09T05:07:03.192Z,28
2024-05-09T05:08:05.615Z,28.2
2024-05-09T05:09:08.430Z,28.8
2024-05-09T05:10:14.744Z,29.3
2024-05-09T05:11:15.863Z,7.2
2024-05-09T05:12:19.031Z,11.7
2024-05-09T05:13:22.537Z,15.1
2024-05-09T05:14:27.159Z,18.2
2024-05-09T05:15:29.976Z,20.5
2024-05-09T05:16:32.421Z,22.2
2024-05-09T05:17:35.085Z,23.5
2024-05-09T05:18:38.975Z,24.7
2024-05-09T05:19:41.932Z,25.9
2024-05-09T05:20:45.191Z,26.7
2024-05-09T05:21:48.462Z,27.4
2024-05-09T05:22:50.951Z,27.9
2024-05-09T05:23:53.539Z,28.2
2024-05-09T05:24:55.942Z,28.7
2024-05-09T05:25:58.048Z,29.1
2024-05-09T05:27:00.794Z,29.1
2024-05-09T05:28:03.215Z,29.3
2024-05-09T05:29:05.708Z,29.4
2024-05-09T05:30:12.001Z,29.8
2024-05-09T05:31:13.725Z,7.4
2024-05-09T05:32:16.567Z,11.7
2024-05-09T05:33:20.242Z,15.2
2024-05-09T05:34:24.711Z,18.2
2024-05-09T05:35:27.282Z,20.6
2024-05-09T05:36:30.452Z,22.4
2024-05-09T05:37:32.887Z,23.8
2024-05-09T05:38:35.384Z,25
2024-05-09T05:39:38.100Z,26
2024-05-09T05:40:40.978Z,26.8
2024-05-09T05:41:43.659Z,27.5
2024-05-09T05:42:45.974Z,28.2
2024-05-09T05:43:48.502Z,28.8
2024-05-09T05:44:51.489Z,29
2024-05-09T05:45:53.921Z,29.3
2024-05-09T05:46:56.370Z,29.4
2024-05-09T05:47:59.159Z,29.8
2024-05-09T05:49:03.106Z,29.8
2024-05-09T05:50:14.447Z,30.1
2024-05-09T05:51:11.465Z,7.4
2024-05-09T05:52:14.638Z,11.8
2024-05-09T05:53:17.141Z,15.4
2024-05-09T05:54:19.758Z,18
2024-05-09T05:55:22.204Z,20.4
2024-05-09T05:56:24.663Z,22.5
2024-05-09T05:57:27.483Z,23.9
2024-05-09T05:58:29.908Z,24.8
2024-05-09T05:59:32.447Z,25.8
2024-05-09T06:00:37.790Z,26.6
2024-05-09T06:01:40.809Z,7.3
2024-05-09T06:02:43.145Z,11.5
2024-05-09T06:03:46.823Z,15
2024-05-09T06:04:50.434Z,18
2024-05-09T06:05:53.641Z,20.2
2024-05-09T06:06:56.347Z,22
2024-05-09T06:07:58.852Z,23.7
2024-05-09T06:09:02.033Z,24.9
2024-05-09T06:10:07.211Z,26
2024-05-09T06:11:09.748Z,7.3
2024-05-09T06:12:12.448Z,11.8
2024-05-09T06:13:15.985Z,15.5
2024-05-09T06:14:18.452Z,18.4
2024-05-09T06:15:21.253Z,20.6
2024-05-09T06:16:23.700Z,22.7
2024-05-09T06:17:26.291Z,23.9
2024-05-09T06:18:30.018Z,25.2
2024-05-09T06:19:33.953Z,26.3
2024-05-09T06:20:37.925Z,26.7
2024-05-09T06:21:42.633Z,27.3
2024-05-09T06:22:45.134Z,27.8
2024-05-09T06:23:47.865Z,28.2
2024-05-09T06:24:50.564Z,28.7
2024-05-09T06:25:53.034Z,29.1
2024-05-09T06:26:55.798Z,29.4
2024-05-09T06:27:58.223Z,29.6
2024-05-09T06:29:00.976Z,29.6
2024-05-09T06:30:03.824Z,29.6
2024-05-09T06:31:10.867Z,7.4
2024-05-09T06:32:13.680Z,11.8
2024-05-09T06:33:16.980Z,15.6
2024-05-09T06:34:21.099Z,18.3
2024-05-09T06:35:24.411Z,20.4
2024-05-09T06:36:27.182Z,22.5
2024-05-09T06:37:29.648Z,23.8
2024-05-09T06:38:32.110Z,24.9
2024-05-09T06:39:35.219Z,26
2024-05-09T06:40:39.095Z,26.8
2024-05-09T06:41:42.876Z,7.3
2024-05-09T06:42:45.617Z,11.7
2024-05-09T06:43:48.046Z,15.2
2024-05-09T06:44:50.791Z,18.1
2024-05-09T06:45:53.248Z,20.5
2024-05-09T06:46:57.107Z,22.3
2024-05-09T06:48:01.042Z,7.2
2024-05-09T06:49:04.788Z,11.4
2024-05-09T06:50:13.067Z,15
2024-05-09T06:51:13.562Z,7.5
2024-05-09T06:52:16.127Z,11.9
2024-05-09T06:53:18.646Z,15.2
2024-05-09T06:54:21.548Z,18.1
2024-05-09T06:55:23.830Z,20.2
2024-05-09T06:56:26.311Z,22.1
2024-05-09T06:57:29.003Z,23.6
2024-05-09T06:58:31.470Z,25
2024-05-09T06:59:33.933Z,26.1
2024-05-09T07:00:38.415Z,27
2024-05-09T07:01:41.914Z,7.3
2024-05-09T07:02:44.446Z,11.9
2024-05-09T07:03:47.849Z,15.4
2024-05-09T07:04:51.090Z,18.5
2024-05-09T07:05:54.710Z,20.5
2024-05-09T07:06:57.507Z,22.4
2024-05-09T07:08:00.063Z,23.9
2024-05-09T07:09:02.848Z,25.2
2024-05-09T07:10:06.345Z,26.2
2024-05-09T07:11:10.492Z,7.2
2024-05-09T07:12:13.645Z,11.7
2024-05-09T07:13:17.152Z,15.3
2024-05-09T07:14:19.306Z,18.2
2024-05-09T07:15:22.034Z,20.4
2024-05-09T07:16:24.613Z,22.2
2024-05-09T07:17:27.330Z,23.7
2024-05-09T07:18:31.040Z,24.9
2024-05-09T07:19:34.603Z,26
2024-05-09T07:20:37.967Z,26.8
2024-05-09T07:21:41.102Z,27.6
2024-05-09T07:22:43.643Z,28.3
2024-05-09T07:23:47.362Z,28.6
2024-05-09T07:24:50.591Z,29
2024-05-09T07:25:53.083Z,29
2024-05-09T07:26:55.827Z,29.5
2024-05-09T07:27:58.114Z,29.7
2024-05-09T07:29:00.616Z,29.8
2024-05-09T07:30:05.463Z,29.9
2024-05-09T07:31:12.994Z,7.3
2024-05-09T07:32:15.551Z,12
2024-05-09T07:33:19.143Z,15.3
2024-05-09T07:34:25.422Z,7.5
2024-05-09T07:35:28.737Z,11.9
2024-05-09T07:36:33.214Z,15.3
2024-05-09T07:37:35.682Z,18
2024-05-09T07:38:38.385Z,20.3
2024-05-09T07:39:41.382Z,22.6
2024-05-09T07:40:43.796Z,24
2024-05-09T07:41:46.878Z,25.3
2024-05-09T07:42:49.568Z,26.3
2024-05-09T07:43:51.865Z,27
2024-05-09T07:44:55.526Z,27.6
2024-05-09T07:47:37.327Z,7.2
2024-05-09T07:48:57.836Z,7.1
2024-05-09T07:50:33.228Z,7.3
2024-05-09T07:53:14.213Z,7.3
2024-05-09T07:53:40.780Z,7.5
2024-05-09T07:54:42.503Z,7.5
2024-05-09T07:55:45.967Z,11.8
2024-05-09T07:56:49.228Z,15.3
2024-05-09T07:57:53.107Z,18.1
2024-05-09T07:58:55.985Z,20.7
2024-05-09T07:59:58.651Z,22.5
2024-05-09T08:01:01.010Z,24.1
2024-05-09T08:02:04.399Z,25.3
2024-05-09T08:03:08.121Z,26.5
2024-05-09T08:04:10.859Z,27.2
2024-05-09T08:05:13.876Z,27.9
2024-05-09T08:06:17.346Z,28.4
2024-05-09T08:07:19.856Z,29.1
2024-05-09T08:08:22.658Z,29.4
2024-05-09T08:09:25.132Z,29.7
2024-05-09T08:10:28.915Z,29.7
2024-05-09T08:11:32.293Z,30.1
2024-05-09T08:12:35.100Z,30.4
2024-05-09T08:13:37.602Z,30.3
2024-05-09T08:14:40.117Z,30.1
2024-05-09T08:15:42.592Z,30.2
2024-05-09T08:16:45.233Z,30.2
2024-05-09T08:17:47.724Z,30.1
2024-05-09T08:18:50.849Z,30.2
2024-05-09T08:19:54.070Z,30.3
2024-05-09T08:20:56.500Z,30.1
2024-05-09T08:21:59.003Z,30.2
2024-05-09T08:23:01.470Z,30.4
2024-05-09T08:24:03.982Z,30.5
2024-05-09T08:25:06.571Z,30.3
2024-05-09T08:26:13.029Z,7.2
2024-05-09T08:27:15.458Z,11.9
2024-05-09T08:28:18.053Z,15.3
2024-05-09T08:29:21.307Z,18.4
2024-05-09T08:30:29.486Z,20.7
2024-05-09T08:31:28.994Z,7.3
2024-05-09T08:32:32.002Z,11.8
2024-05-09T08:33:35.161Z,15.2
2024-05-09T08:34:39.789Z,18.2
2024-05-09T08:35:42.399Z,20.5
2024-05-09T08:36:44.712Z,22.5
2024-05-09T08:37:47.498Z,24
2024-05-09T08:38:50.095Z,25.3
2024-05-09T08:39:52.609Z,26.1
2024-05-09T08:40:55.226Z,27.1
2024-05-09T08:41:57.742Z,27.6
2024-05-09T08:43:00.260Z,28.1
2024-05-09T08:44:03.383Z,28.4
2024-05-09T08:45:05.802Z,28.9
2024-05-09T08:46:08.256Z,29.1
2024-05-09T08:47:11.080Z,29.4
2024-05-09T08:48:14.623Z,29.6
2024-05-09T08:49:19.498Z,29.6
2024-05-09T08:50:28.653Z,29.7
2024-05-09T08:51:27.696Z,7.2
2024-05-09T08:52:30.314Z,11.8
2024-05-09T08:53:32.964Z,15.7
2024-05-09T08:54:35.470Z,18.3
2024-05-09T08:55:40.038Z,20.5
2024-05-09T08:56:43.105Z,7.3
2024-05-09T08:57:45.504Z,11.7
2024-05-09T08:58:48.170Z,15.3
2024-05-09T08:59:50.617Z,18
2024-05-09T09:00:53.124Z,20.3
2024-05-09T09:01:56.290Z,22.5
2024-05-09T09:02:59.263Z,23.9
2024-05-09T09:04:01.868Z,25
2024-05-09T09:05:05.435Z,25.7
2024-05-09T09:06:08.677Z,26.6
2024-05-09T09:07:11.183Z,27.1
2024-05-09T09:08:13.753Z,27.7
2024-05-09T09:09:16.185Z,28.4
2024-05-09T09:10:24.873Z,28.7
2024-05-09T09:11:23.779Z,7.3
2024-05-09T09:12:26.451Z,11.8
2024-05-09T09:13:28.930Z,15.1
2024-05-09T09:14:31.430Z,18
2024-05-09T09:15:33.840Z,20.5
2024-05-09T09:16:36.550Z,22.4
2024-05-09T09:17:39.066Z,24.2
2024-05-09T09:18:42.192Z,25.3
2024-05-09T09:19:45.927Z,26.2
2024-05-09T09:20:48.699Z,27.3
2024-05-09T09:21:51.206Z,27.6
2024-05-09T09:22:53.973Z,28.3
2024-05-09T09:23:56.431Z,28.6
2024-05-09T09:24:58.864Z,29.1
2024-05-09T09:26:01.714Z,29.7
2024-05-09T09:27:04.299Z,29.6
2024-05-09T09:28:06.869Z,29.8
2024-05-09T09:29:11.095Z,29.7
2024-05-09T09:30:22.437Z,30
2024-05-09T09:31:18.985Z,7.3
2024-05-09T09:32:21.921Z,11.6
2024-05-09T09:33:24.817Z,15
2024-05-09T09:34:28.171Z,18
2024-05-09T09:35:32.038Z,20.3
2024-05-09T09:36:34.565Z,22.3
2024-05-09T09:37:37.215Z,23.8
2024-05-09T09:38:39.596Z,25.2
2024-05-09T09:39:41.903Z,26.3
2024-05-09T09:40:46.874Z,26.9
2024-05-09T09:41:49.724Z,7.1
2024-05-09T09:42:52.262Z,11.5
2024-05-09T09:43:54.748Z,15.2
2024-05-09T09:45:01.773Z,18
2024-05-09T09:46:02.433Z,7.3
2024-05-09T09:47:05.859Z,11.9
2024-05-09T09:48:08.376Z,15.4
2024-05-09T09:49:11.725Z,18.4
2024-05-09T09:50:16.947Z,20.9
2024-05-09T09:51:19.933Z,7.5
2024-05-09T09:52:22.450Z,11.9
2024-05-09T09:53:25.375Z,15.5
2024-05-09T09:54:27.897Z,18.3
2024-05-09T09:55:30.580Z,20.9
2024-05-09T09:56:33.049Z,22.7
2024-05-09T09:57:35.478Z,24.2
2024-05-09T09:58:38.157Z,25.1
2024-05-09T09:59:40.642Z,26
2024-05-09T10:00:43.229Z,27
2024-05-09T10:01:47.598Z,27.8
2024-05-09T10:02:50.909Z,28.5
2024-05-09T10:03:53.701Z,28.9
2024-05-09T10:04:56.833Z,29.3
2024-05-09T10:06:00.046Z,29.3
2024-05-09T10:07:02.978Z,29.4
2024-05-09T10:08:05.645Z,29.8
2024-05-09T10:09:08.101Z,29.8
2024-05-09T10:10:13.825Z,30
2024-05-09T10:11:15.665Z,7.3
2024-05-09T10:12:18.074Z,11.8
2024-05-09T10:13:20.924Z,15.5
2024-05-09T10:14:24.206Z,18.4
2024-05-09T10:15:26.618Z,20.8
2024-05-09T10:16:29.804Z,22.7
2024-05-09T10:17:32.780Z,24.2
2024-05-09T10:18:36.236Z,25.4
2024-05-09T10:19:40.000Z,26.4
2024-05-09T10:20:42.770Z,27.1
2024-05-09T10:21:45.583Z,27.5
2024-05-09T10:22:48.462Z,28.1
2024-05-09T10:23:50.913Z,28.6
2024-05-09T10:24:53.269Z,28.7
2024-05-09T10:25:56.306Z,29
2024-05-09T10:26:58.780Z,29.5
2024-05-09T10:28:01.011Z,29.6
2024-05-09T10:29:03.607Z,29.7
2024-05-09T10:30:09.068Z,29.7
2024-05-09T10:31:11.397Z,7.3
2024-05-09T10:32:15.015Z,11.6
2024-05-09T10:33:17.892Z,15.3
2024-05-09T10:34:21.248Z,18.1
2024-05-09T10:35:26.082Z,20.4
2024-05-09T10:36:28.560Z,22.3
2024-05-09T10:37:31.354Z,24
2024-05-09T10:38:34.211Z,25.2
2024-05-09T10:39:36.645Z,26.5
2024-05-09T10:40:39.451Z,27.3
2024-05-09T10:41:42.633Z,28.1
2024-05-09T10:42:44.901Z,28.5
2024-05-09T10:43:47.659Z,29.2
2024-05-09T10:44:49.937Z,29.3
2024-05-09T10:45:52.376Z,29.7
2024-05-09T10:46:55.232Z,29.8
2024-05-09T10:47:58.134Z,30
2024-05-09T10:49:03.272Z,30
2024-05-09T10:50:12.659Z,7.2
2024-05-09T10:51:11.955Z,7.3
2024-05-09T10:52:14.646Z,11.4
2024-05-09T10:53:17.755Z,15.1
2024-05-09T10:54:20.216Z,17.9
2024-05-09T10:55:22.755Z,20.3
2024-05-09T10:56:25.847Z,22
2024-05-09T10:57:28.315Z,23.6
2024-05-09T10:58:30.912Z,24.6
2024-05-09T10:59:33.347Z,26
2024-05-09T11:00:36.404Z,27
2024-05-09T11:01:39.910Z,27.8
2024-05-09T11:02:43.377Z,28.1
2024-05-09T11:03:46.893Z,28.6
2024-05-09T11:04:50.953Z,28.9
2024-05-09T11:05:54.066Z,29.2
2024-05-09T11:06:56.953Z,29.5
2024-05-09T11:08:05.208Z,7.2
2024-05-09T11:09:07.307Z,11.6
2024-05-09T11:10:12.332Z,15.1
2024-05-09T11:11:14.920Z,7.4
2024-05-09T11:12:18.730Z,11.8
2024-05-09T11:13:22.850Z,7.3
2024-05-09T11:14:25.284Z,11.9
2024-05-09T11:15:27.849Z,15.4
2024-05-09T11:16:30.681Z,18.2
2024-05-09T11:17:33.430Z,20.8
2024-05-09T11:18:38.019Z,22.5
2024-05-09T11:19:41.633Z,7.4
2024-05-09T11:20:44.709Z,11.6
2024-05-09T11:21:47.225Z,15.1
2024-05-09T11:22:50.056Z,18
2024-05-09T11:23:52.509Z,20.3
2024-05-09T11:24:55.312Z,22.4
2024-05-09T11:25:58.063Z,23.7
2024-05-09T11:27:00.839Z,25.1
2024-05-09T11:28:03.298Z,26
2024-05-09T11:29:06.276Z,26.9
2024-05-09T11:30:14.150Z,27.4
2024-05-09T11:31:13.952Z,7.4
2024-05-09T11:32:16.692Z,11.8
2024-05-09T11:33:19.630Z,15.5
2024-05-09T11:34:22.276Z,18.3
2024-05-09T11:35:25.162Z,20.6
2024-05-09T11:36:27.417Z,22.6
2024-05-09T11:37:30.056Z,24
2024-05-09T11:38:37.504Z,7.5
2024-05-09T11:39:40.053Z,11.8
2024-05-09T11:40:42.840Z,15.4
2024-05-09T11:41:45.610Z,18.2
2024-05-09T11:42:50.004Z,20.8
2024-05-09T11:43:53.221Z,7.3
2024-05-09T11:44:55.686Z,11.9
2024-05-09T11:45:58.006Z,15.5
2024-05-09T11:47:01.066Z,18.4
2024-05-09T11:48:03.626Z,20.9
2024-05-09T11:49:06.834Z,22.7
2024-05-09T11:50:15.955Z,23.9
2024-05-09T11:51:15.931Z,7.3
2024-05-09T11:52:18.394Z,11.6
2024-05-09T11:53:21.137Z,15.4
2024-05-09T11:54:23.724Z,18.3
2024-05-09T11:55:27.580Z,20.5
2024-05-09T11:56:31.235Z,22.3
2024-05-09T11:57:33.724Z,23.6
2024-05-09T11:58:36.358Z,24.7
2024-05-09T11:59:38.865Z,25.7
2024-05-09T12:00:41.344Z,26.6
2024-05-09T12:01:44.681Z,27.4
2024-05-09T12:02:48.032Z,28.3
2024-05-09T12:03:50.629Z,28.6
2024-05-09T12:04:54.165Z,28.7
2024-05-09T12:05:57.299Z,28.9
2024-05-09T12:07:00.488Z,29
2024-05-09T12:08:03.198Z,29.2
2024-05-09T12:09:05.665Z,29.5
2024-05-09T12:10:13.803Z,29.6
2024-05-09T12:11:13.449Z,7.3
2024-05-09T12:12:16.411Z,12
2024-05-09T12:13:18.958Z,15.5
2024-05-09T12:14:22.399Z,18.5
2024-05-09T12:15:24.863Z,20.7
2024-05-09T12:16:27.401Z,22.6
2024-05-09T12:17:31.021Z,24.1
2024-05-09T12:18:34.021Z,25.2
2024-05-09T12:19:37.410Z,26.1
2024-05-09T12:20:40.423Z,26.6
2024-05-09T12:21:42.850Z,27.5
2024-05-09T12:22:45.310Z,27.9
2024-05-09T12:23:47.808Z,28.4
2024-05-09T12:24:50.310Z,28.7
2024-05-09T12:25:52.990Z,29
2024-05-09T12:26:55.465Z,29.5
2024-05-09T12:27:57.932Z,29.8
2024-05-09T12:29:01.298Z,29.9
2024-05-09T12:30:04.586Z,30
2024-05-09T12:31:11.526Z,7.4
2024-05-09T12:32:14.329Z,11.8
2024-05-09T12:33:17.407Z,15.3
2024-05-09T12:34:20.738Z,18.1
2024-05-09T12:35:23.294Z,20.2
2024-05-09T12:36:25.738Z,22.1
2024-05-09T12:37:28.249Z,23.6
2024-05-09T12:38:30.674Z,24.6
2024-05-09T12:39:33.004Z,25.7
2024-05-09T12:40:37.375Z,26.5
2024-05-09T12:41:40.973Z,7
2024-05-09T12:42:43.583Z,11.5
2024-05-09T12:43:46.346Z,14.9
2024-05-09T12:44:48.569Z,17.8
2024-05-09T12:45:51.020Z,20.3
2024-05-09T12:46:53.923Z,22.5
2024-05-09T12:47:56.519Z,24.1
2024-05-09T12:49:00.374Z,25.3
2024-05-09T12:50:06.363Z,26.3
2024-05-09T12:51:09.837Z,7.5
2024-05-09T12:52:12.076Z,11.8
2024-05-09T12:53:15.260Z,15
2024-05-09T12:54:17.815Z,17.9
2024-05-09T12:55:20.180Z,20.3
2024-05-09T12:56:22.641Z,22.1
2024-05-09T12:57:25.125Z,23.9
2024-05-09T12:58:27.636Z,25
2024-05-09T12:59:30.370Z,26.2
2024-05-09T13:01:37.320Z,27.8
2024-05-09T13:02:40.324Z,28.4
2024-05-09T13:03:43.493Z,28.7
2024-05-09T13:04:46.688Z,29
2024-05-09T13:05:49.666Z,29.3
2024-05-09T13:06:53.172Z,29.4
2024-05-09T13:07:55.872Z,29.6
2024-05-09T13:08:58.853Z,29.6
2024-05-09T13:10:01.345Z,29.7
2024-05-09T13:11:06.219Z,29.9
2024-05-09T13:12:08.965Z,30
2024-05-09T13:13:11.582Z,30.2
2024-05-09T13:14:15.473Z,30.3
2024-05-09T13:15:18.084Z,30.5
2024-05-09T13:16:20.688Z,30.7
2024-05-09T13:17:24.110Z,30.5
2024-05-09T13:18:27.183Z,30.7
2024-05-09T13:19:30.005Z,30.6
2024-05-09T13:20:34.022Z,30.4
2024-05-09T13:21:37.874Z,7.3
2024-05-09T13:22:40.407Z,11.7
2024-05-09T13:23:42.645Z,15.3
2024-05-09T13:24:45.119Z,18.5
2024-05-09T13:25:47.660Z,20.9
2024-05-09T13:26:49.891Z,23
2024-05-09T13:27:52.495Z,24.2
2024-05-09T13:28:55.690Z,25.4
2024-05-09T13:29:58.096Z,26.3
2024-05-09T13:31:00.637Z,27.1
2024-05-09T13:32:03.427Z,27.9
2024-05-09T13:33:06.515Z,28.4
2024-05-09T13:34:12.732Z,28.7
2024-05-09T13:35:15.758Z,29.1
2024-05-09T13:36:18.347Z,29.4
2024-05-09T13:37:20.833Z,29.6
2024-05-09T13:38:23.260Z,29.8
2024-05-09T13:39:25.717Z,29.8
2024-05-09T13:40:32.522Z,29.6
2024-05-09T13:41:33.294Z,7.4
2024-05-09T13:42:35.920Z,11.9
2024-05-09T13:43:38.498Z,15.3
2024-05-09T13:44:41.105Z,18.3
2024-05-09T13:45:43.597Z,20.5
2024-05-09T13:46:46.630Z,22.3
2024-05-09T13:47:49.256Z,24
2024-05-09T13:48:52.527Z,25.4
2024-05-09T13:49:55.627Z,26.3
2024-05-09T13:50:58.281Z,27.1
2024-05-09T13:52:00.917Z,27.8
2024-05-09T13:53:03.611Z,28.5
2024-05-09T13:54:09.647Z,28.8
2024-05-09T13:55:12.324Z,29.1
2024-05-09T13:56:16.061Z,29.3
2024-05-09T13:57:18.489Z,29.5
2024-05-09T13:58:21.118Z,29.5
2024-05-09T13:59:24.531Z,29.5
2024-05-09T14:00:32.205Z,29.6
2024-05-09T14:01:32.209Z,7.3
2024-05-09T14:02:35.550Z,11.7
2024-05-09T14:03:39.275Z,15.3
2024-05-09T14:04:42.741Z,18.2
2024-05-09T14:06:00.843Z,20.6
2024-05-09T14:07:03.578Z,22.4
2024-05-09T14:08:06.185Z,23.9
2024-05-09T14:09:08.591Z,25.1
2024-05-09T14:10:16.028Z,26.2
2024-05-09T14:11:16.221Z,7.6
2024-05-09T14:12:18.906Z,12.1
2024-05-09T14:13:21.404Z,15.6
2024-05-09T14:14:24.104Z,18.4